createdAt,value
2022-07-29T00:00:00.005Z,19061.70
2022-07-29T00:02:27.662Z,19186.92
2022-07-29T00:04:54.758Z,19261.52
2022-07-29T00:07:21.453Z,19442.85
2022-07-29T00:09:52.180Z,19392.57
2022-07-29T00:12:25.488Z,19413.84
2022-07-29T00:14:55.412Z,19578.18
2022-07-29T00:17:23.529Z,19713.81
2022-07-29T00:19:50.270Z,19569.35
2022-07-29T00:22:16.945Z,19616.77
2022-07-29T00:24:43.639Z,19637.74
2022-07-29T00:27:10.329Z,19643.33
2022-07-29T00:29:37.060Z,19696.69
2022-07-29T00:32:04.002Z,19280.92
2022-07-29T00:34:31.055Z,19660.43
2022-07-29T00:36:58.251Z,20106.37
2022-07-29T00:39:25.029Z,20907.75
2022-07-29T00:41:54.289Z,21152.34
2022-07-29T00:44:21.003Z,20764.98
2022-07-29T00:46:48.024Z,21401.38
2022-07-29T00:49:14.944Z,21213.56
2022-07-29T00:51:41.883Z,21526.12
2022-07-29T00:54:08.806Z,21661.58
2022-07-29T00:56:35.654Z,22017.66
2022-07-29T00:59:02.588Z,22127.99
2022-07-29T01:01:29.478Z,21784.98
2022-07-29T01:03:56.461Z,21822.16
2022-07-29T01:06:25.869Z,21691.41
2022-07-29T01:08:52.689Z,21777.40
2022-07-29T01:11:20.196Z,21550.54
2022-07-29T01:13:48.716Z,21264.19
2022-07-29T01:16:36.373Z,21387.25
2022-07-29T01:19:24.047Z,21230.31
2022-07-29T01:21:50.707Z,21300.88
2022-07-29T01:24:31.206Z,21261.79
2022-07-29T01:27:25.337Z,21988.38
2022-07-29T01:30:05.404Z,21833.22
2022-07-29T01:32:41.157Z,21597.73
2022-07-29T01:35:27.249Z,21389.33
2022-07-29T01:38:07.878Z,19958.64
2022-07-29T01:41:02.413Z,18847.09
2022-07-29T01:43:56.636Z,19034.93
2022-07-29T01:46:34.344Z,19441.72
2022-07-29T01:49:11.023Z,19910.98
2022-07-29T01:51:58.576Z,20910.23
2022-07-29T01:54:51.756Z,20714.89
2022-07-29T01:57:26.259Z,21024.32
2022-07-29T01:59:57.257Z,20977.68
2022-07-29T02:02:27.178Z,21288.62
2022-07-29T02:04:57.280Z,21588.88
2022-07-29T02:07:29.187Z,21696.45
2022-07-29T02:09:59.135Z,21532.76
2022-07-29T02:12:29.456Z,21407.45
2022-07-29T02:15:02.397Z,22023.94
2022-07-29T02:17:40.839Z,21115.62
2022-07-29T02:20:10.521Z,21394.47
2022-07-29T02:22:40.551Z,21135.72
2022-07-29T02:25:13.809Z,21369.14
2022-07-29T02:27:43.605Z,21351.23
2022-07-29T02:30:11.080Z,20449.83
2022-07-29T02:32:41.027Z,21193.01
2022-07-29T02:35:10.218Z,21463.59
2022-07-29T02:37:39.418Z,21899.69
2022-07-29T02:40:12.025Z,21528.72
2022-07-29T02:42:42.210Z,21745.04
2022-07-29T02:45:10.378Z,21595.51
2022-07-29T02:47:49.511Z,21459.30
2022-07-29T02:50:35.586Z,21248.86
2022-07-29T02:53:09.937Z,21390.55
2022-07-29T02:55:55.950Z,21165.72
2022-07-29T02:58:35.586Z,21166.88
2022-07-29T03:01:21.651Z,21144.95
2022-07-29T03:03:52.817Z,21404.35
2022-07-29T03:06:31.369Z,21583.38
2022-07-29T03:09:12.850Z,21131.69
2022-07-29T03:11:50.364Z,21200.83
2022-07-29T03:14:19.807Z,21243.07
2022-07-29T03:16:48.052Z,21059.63
2022-07-29T03:19:15.456Z,20906.83
2022-07-29T03:21:42.543Z,21015.20
2022-07-29T03:24:10.804Z,20716.40
2022-07-29T03:26:37.971Z,20800.08
2022-07-29T03:29:04.885Z,20687.61
2022-07-29T03:31:31.792Z,21056.64
2022-07-29T03:34:00.667Z,20920.48
2022-07-29T03:36:27.657Z,21034.31
2022-07-29T03:38:56.367Z,20906.76
2022-07-29T03:41:26.621Z,20989.07
2022-07-29T03:43:55.969Z,21207.29
2022-07-29T03:46:29.362Z,21159.30
2022-07-29T03:49:02.202Z,21192.21
2022-07-29T03:51:31.538Z,21996.84
2022-07-29T03:54:06.420Z,21167.67
2022-07-29T03:56:42.070Z,21199.69
2022-07-29T03:59:11.606Z,21277.94
2022-07-29T04:01:39.991Z,21383.85
2022-07-29T04:04:06.949Z,21164.24
2022-07-29T04:06:44.973Z,20864.58
2022-07-29T04:09:13.086Z,21123.67
2022-07-29T04:12:02.383Z,20982.93
2022-07-29T04:14:48.236Z,20849.21
2022-07-29T04:17:15.152Z,21032.01
2022-07-29T04:19:42.007Z,21218.19
2022-07-29T04:22:08.822Z,21336.89
2022-07-29T04:24:36.040Z,21421.47
2022-07-29T04:27:02.886Z,21596.18
2022-07-29T04:29:29.616Z,21605.70
2022-07-29T04:31:56.591Z,21678.07
2022-07-29T04:34:23.353Z,21784.56
2022-07-29T04:36:55.554Z,21845.13
2022-07-29T04:39:23.324Z,21744.82
2022-07-29T04:41:51.279Z,21750.39
2022-07-29T04:44:19.860Z,21625.50
2022-07-29T04:46:46.842Z,21775.75
2022-07-29T04:49:13.682Z,21803.95
2022-07-29T04:51:40.490Z,21807.37
2022-07-29T04:54:07.369Z,21783.30
2022-07-29T04:56:34.126Z,21781.05
2022-07-29T04:59:00.861Z,21731.01
2022-07-29T05:01:27.883Z,21746.56
2022-07-29T05:03:59.883Z,21582.88
2022-07-29T05:06:27.297Z,21715.58
2022-07-29T05:08:53.977Z,21698.97
2022-07-29T05:11:22.439Z,21695.18
2022-07-29T05:13:50.645Z,21823.26
2022-07-29T05:16:17.413Z,21946.22
2022-07-29T05:18:45.662Z,21778.73
2022-07-29T05:21:14.985Z,21733.93
2022-07-29T05:23:41.637Z,21999.84
2022-07-29T05:26:08.299Z,21883.31
2022-07-29T05:28:35.522Z,21664.83
2022-07-29T05:31:02.291Z,21337.24
2022-07-29T05:33:35.271Z,20898.10
2022-07-29T05:36:06.221Z,20755.75
2022-07-29T05:38:33.222Z,20806.00
2022-07-29T05:41:00.124Z,20827.70
2022-07-29T05:43:28.770Z,20850.94
2022-07-29T05:45:55.907Z,20723.66
2022-07-29T05:48:22.767Z,20589.39
2022-07-29T05:50:49.440Z,20553.54
2022-07-29T05:53:18.981Z,20553.96
2022-07-29T05:55:47.602Z,20682.19
2022-07-29T05:58:14.268Z,20763.64
2022-07-29T06:00:41.233Z,20771.17
2022-07-29T06:03:08.191Z,20713.22
2022-07-29T06:05:35.058Z,20696.01
2022-07-29T06:08:01.863Z,20936.03
2022-07-29T06:10:28.540Z,20921.47
2022-07-29T06:12:55.770Z,20927.08
2022-07-29T06:15:22.424Z,20972.68
2022-07-29T06:17:58.914Z,21061.35
2022-07-29T06:20:31.281Z,21147.80
2022-07-29T06:22:58.519Z,21231.95
2022-07-29T06:25:25.220Z,21215.66
2022-07-29T06:27:53.653Z,21142.35
2022-07-29T06:30:20.493Z,21055.88
2022-07-29T06:32:47.244Z,21023.76
2022-07-29T06:38:00.677Z,21059.52
2022-07-29T06:40:27.564Z,21144.45
2022-07-29T06:42:54.416Z,21281.48
2022-07-29T06:45:21.271Z,21328.29
2022-07-29T06:47:47.935Z,21106.64
2022-07-29T06:50:14.643Z,21117.94
2022-07-29T06:52:41.390Z,21316.17
2022-07-29T06:55:08.994Z,21362.13
2022-07-29T06:57:36.001Z,21052.49
2022-07-29T07:00:03.442Z,21003.45
2022-07-29T07:02:30.224Z,21122.65
2022-07-29T07:04:56.956Z,20687.47
2022-07-29T07:07:23.935Z,20700.70
2022-07-29T07:09:50.654Z,20648.19
2022-07-29T07:12:17.551Z,20543.54
2022-07-29T07:14:44.352Z,20210.78
2022-07-29T07:17:11.000Z,20343.22
2022-07-29T07:19:37.749Z,20331.52
2022-07-29T07:22:04.818Z,20291.87
2022-07-29T07:24:31.608Z,20170.05
2022-07-29T07:26:58.447Z,20064.63
2022-07-29T07:29:25.259Z,20121.97
2022-07-29T07:31:53.506Z,20170.62
2022-07-29T07:34:28.317Z,20242.73
2022-07-29T07:36:56.436Z,20195.20
2022-07-29T07:39:23.198Z,20907.51
2022-07-29T07:41:49.923Z,20612.85
2022-07-29T07:44:17.203Z,12479.29
2022-07-29T07:46:44.347Z,12873.28
2022-07-29T07:49:12.044Z,14984.06
2022-07-29T07:51:38.784Z,15097.34
2022-07-29T07:54:05.750Z,14034.98
2022-07-29T07:56:35.292Z,12235.09
2022-07-29T07:59:02.245Z,9894.23
2022-07-29T08:01:29.072Z,8955.17
2022-07-29T08:04:15.195Z,8644.32
2022-07-29T08:06:42.578Z,8311.25
2022-07-29T08:09:28.325Z,8588.16
2022-07-29T08:11:56.752Z,8420.76
2022-07-29T08:14:23.462Z,7956.76
2022-07-29T08:16:50.301Z,8036.98
2022-07-29T08:19:17.139Z,8011.12
2022-07-29T08:21:43.913Z,8091.66
2022-07-29T08:24:10.671Z,8199.58
2022-07-29T08:26:37.522Z,8532.39
2022-07-29T08:29:04.248Z,8777.34
2022-07-29T08:31:31.053Z,8284.25
2022-07-29T08:33:57.883Z,8663.52
2022-07-29T08:36:25.553Z,8639.92
2022-07-29T08:38:52.337Z,8398.33
2022-07-29T08:41:20.956Z,8572.62
2022-07-29T08:43:49.487Z,7425.06
2022-07-29T08:46:17.059Z,7483.75
2022-07-29T08:48:44.592Z,7747.07
2022-07-29T08:51:16.456Z,7784.08
2022-07-29T08:53:45.652Z,7557.64
2022-07-29T08:56:13.865Z,7627.44
2022-07-29T08:58:42.004Z,7900.43
2022-07-29T09:01:15.121Z,8037.58
2022-07-29T09:03:45.572Z,8218.67
2022-07-29T09:06:18.948Z,8063.25
2022-07-29T09:08:46.269Z,7886.37
2022-07-29T09:11:14.472Z,7827.70
2022-07-29T09:13:41.690Z,7708.58
2022-07-29T09:16:09.491Z,7625.56
2022-07-29T09:18:42.702Z,7670.32
2022-07-29T09:21:12.585Z,7726.88
2022-07-29T09:23:39.264Z,7706.77
2022-07-29T09:26:06.984Z,7712.13
2022-07-29T09:28:36.550Z,7835.16
2022-07-29T09:31:03.450Z,7819.93
2022-07-29T09:33:35.384Z,7788.61
2022-07-29T09:36:09.474Z,8082.24
2022-07-29T09:38:37.289Z,7871.11
2022-07-29T09:41:06.703Z,7770.38
2022-07-29T09:43:35.453Z,7815.72
2022-07-29T09:46:12.819Z,7968.48
2022-07-29T09:48:39.791Z,8098.14
2022-07-29T09:51:06.590Z,8265.49
2022-07-29T09:53:38.971Z,8658.73
2022-07-29T09:56:06.145Z,8851.13
2022-07-29T09:58:33.392Z,8876.28
2022-07-29T10:01:02.509Z,8955.33
2022-07-29T10:03:29.279Z,8854.43
2022-07-29T10:06:25.201Z,8156.68
2022-07-29T10:08:52.422Z,9169.29
2022-07-29T10:11:22.794Z,9382.98
2022-07-29T10:13:49.665Z,8897.99
2022-07-29T10:16:17.529Z,8631.54
2022-07-29T10:18:45.441Z,8881.99
2022-07-29T10:21:34.860Z,9398.42
2022-07-29T10:24:01.353Z,8811.20
2022-07-29T10:26:30.424Z,8415.74
2022-07-29T10:28:57.204Z,10154.42
2022-07-29T10:31:37.451Z,12378.43
2022-07-29T10:34:33.924Z,15191.06
2022-07-29T10:37:18.151Z,15579.99
2022-07-29T10:40:11.711Z,14401.41
2022-07-29T10:42:43.591Z,15815.34
2022-07-29T10:45:11.760Z,15927.76
2022-07-29T10:47:39.204Z,15571.89
2022-07-29T10:50:07.009Z,15500.44
2022-07-29T10:52:54.652Z,16554.84
2022-07-29T10:55:33.469Z,16317.72
2022-07-29T10:58:23.866Z,15176.81
2022-07-29T11:00:52.852Z,16615.32
2022-07-29T11:03:49.652Z,17330.03
2022-07-29T11:06:26.463Z,18675.77
2022-07-29T11:09:16.959Z,18580.40
2022-07-29T11:14:58.247Z,17484.88
2022-07-29T11:17:24.988Z,9737.36
2022-07-29T11:20:31.177Z,9303.31
2022-07-29T11:22:59.537Z,6631.59
2022-07-29T11:25:50.832Z,6230.82
2022-07-29T11:28:25.038Z,7800.56
2022-07-29T11:30:58.007Z,17481.23
2022-07-29T11:33:54.293Z,18345.57
2022-07-29T11:36:28.377Z,17974.14
2022-07-29T11:39:27.356Z,17657.77
2022-07-29T11:42:28.528Z,16906.16
2022-07-29T11:45:09.060Z,17034.97
2022-07-29T11:47:55.955Z,16273.04
2022-07-29T11:50:36.592Z,16079.36
2022-07-29T11:53:11.787Z,16087.00
2022-07-29T11:55:51.356Z,16065.25
2022-07-29T11:58:25.020Z,16206.55
2022-07-29T12:00:53.141Z,16197.58
2022-07-29T12:03:33.428Z,16201.33
2022-07-29T12:06:07.602Z,15575.74
2022-07-29T12:08:42.162Z,15375.84
2022-07-29T12:11:17.274Z,19144.66
2022-07-29T12:13:44.003Z,19537.67
2022-07-29T12:16:12.779Z,18286.41
2022-07-29T12:18:41.609Z,10127.71
2022-07-29T12:21:08.434Z,20288.29
2022-07-29T12:23:35.636Z,21720.63
2022-07-29T12:26:07.646Z,21543.95
2022-07-29T12:28:39.317Z,21530.66
2022-07-29T12:31:06.384Z,21365.29
2022-07-29T12:33:35.779Z,21198.47
2022-07-29T12:36:07.633Z,21152.93
2022-07-29T12:38:36.662Z,21193.97
2022-07-29T12:41:04.460Z,21179.56
2022-07-29T12:43:32.244Z,21057.92
2022-07-29T12:46:12.140Z,20974.81
2022-07-29T12:48:44.212Z,20950.30
2022-07-29T12:51:12.197Z,20863.96
2022-07-29T12:53:39.053Z,20944.49
2022-07-29T12:56:20.710Z,21108.08
2022-07-29T12:58:55.057Z,21191.31
2022-07-29T13:01:22.620Z,21347.07
2022-07-29T13:03:56.786Z,21545.31
2022-07-29T13:06:37.749Z,21489.49
2022-07-29T13:09:09.435Z,21573.29
2022-07-29T13:11:46.568Z,21536.71
2022-07-29T13:14:32.515Z,21626.18
2022-07-29T13:17:06.912Z,21539.81
2022-07-29T13:19:45.010Z,21546.82
2022-07-29T13:22:18.703Z,21773.83
2022-07-29T13:24:58.832Z,21801.09
2022-07-29T13:27:28.069Z,22116.79
2022-07-29T13:29:56.746Z,22200.53
2022-07-29T13:32:28.258Z,22379.69
2022-07-29T13:34:57.319Z,22433.66
2022-07-29T13:37:24.177Z,22551.49
2022-07-29T13:39:53.257Z,22519.57
2022-07-29T13:42:20.685Z,22481.29
2022-07-29T13:44:47.439Z,22827.51
2022-07-29T13:47:14.097Z,22760.47
2022-07-29T13:49:41.066Z,22666.00
2022-07-29T13:52:07.758Z,22942.15
2022-07-29T13:54:38.799Z,22484.64
2022-07-29T13:57:08.786Z,22620.27
2022-07-29T13:59:35.453Z,22603.34
2022-07-29T14:02:02.219Z,22666.83
2022-07-29T14:04:28.956Z,22594.89
2022-07-29T14:06:55.808Z,22581.47
2022-07-29T14:09:22.499Z,22361.54
2022-07-29T14:11:49.245Z,22414.12
2022-07-29T14:14:16.237Z,22082.91
2022-07-29T14:16:47.890Z,22272.06
2022-07-29T14:19:17.335Z,22087.84
2022-07-29T14:21:54.611Z,21993.75
2022-07-29T14:24:23.989Z,21990.53
2022-07-29T14:26:52.626Z,22034.39
2022-07-29T14:29:19.286Z,21952.84
2022-07-29T14:31:46.031Z,21891.52
2022-07-29T14:34:12.771Z,21538.16
2022-07-29T14:36:39.455Z,21566.39
2022-07-29T14:39:07.335Z,21525.36
2022-07-29T14:41:34.010Z,21570.16
2022-07-29T14:44:00.749Z,21412.32
2022-07-29T14:46:28.460Z,21388.22
2022-07-29T14:48:55.254Z,21558.88
2022-07-29T14:51:21.936Z,21493.70
2022-07-29T14:53:48.621Z,21450.39
2022-07-29T14:56:36.166Z,21438.60
2022-07-29T14:59:02.070Z,21390.14
2022-07-29T15:01:28.908Z,21488.29
2022-07-29T15:03:59.555Z,21398.94
2022-07-29T15:06:27.981Z,21455.46
2022-07-29T15:08:54.715Z,21400.79
2022-07-29T15:11:21.401Z,21437.22
2022-07-29T15:13:48.062Z,21385.92
2022-07-29T15:16:14.858Z,21630.65
2022-07-29T15:18:41.562Z,21682.67
2022-07-29T15:21:08.342Z,21411.52
2022-07-29T15:23:35.397Z,21562.23
2022-07-29T15:26:02.124Z,21530.86
2022-07-29T15:28:28.942Z,21497.97
2022-07-29T15:30:55.722Z,21575.40
2022-07-29T15:33:23.561Z,21457.27
2022-07-29T15:35:52.732Z,21397.13
2022-07-29T15:38:19.422Z,21463.88
2022-07-29T15:40:46.103Z,21457.44
2022-07-29T15:43:12.858Z,21524.45
2022-07-29T15:45:42.126Z,21458.54
2022-07-29T15:48:14.628Z,21581.70
2022-07-29T15:50:41.668Z,21433.08
2022-07-29T15:53:08.359Z,21388.01
2022-07-29T15:55:34.998Z,21535.82
2022-07-29T15:58:01.705Z,21399.36
2022-07-29T16:00:28.432Z,21376.02
2022-07-29T16:02:55.930Z,21541.26
2022-07-29T16:05:22.709Z,21569.33
2022-07-29T16:07:49.536Z,21456.87
2022-07-29T16:10:16.190Z,21558.13
2022-07-29T16:12:42.850Z,21520.33
2022-07-29T16:15:10.633Z,21547.10
2022-07-29T16:17:38.465Z,21321.75
2022-07-29T16:20:05.955Z,21251.37
2022-07-29T16:22:32.750Z,21458.51
2022-07-29T16:24:59.419Z,21444.65
2022-07-29T16:27:26.453Z,21452.32
2022-07-29T16:30:02.093Z,21445.43
2022-07-29T16:32:28.862Z,21409.13
2022-07-29T16:34:55.573Z,21573.17
2022-07-29T16:37:22.296Z,21450.22
2022-07-29T16:39:48.939Z,21251.00
2022-07-29T16:42:30.983Z,21514.07
2022-07-29T16:45:03.119Z,21469.19
2022-07-29T16:47:29.927Z,21135.14
2022-07-29T16:49:56.813Z,21086.42
2022-07-29T16:52:23.779Z,21007.28
2022-07-29T16:54:50.653Z,20783.20
2022-07-29T16:57:17.436Z,20921.04
2022-07-29T16:59:44.204Z,21082.05
2022-07-29T17:02:10.955Z,21106.25
2022-07-29T17:04:37.717Z,20550.46
2022-07-29T17:07:04.371Z,20711.84
2022-07-29T17:09:31.068Z,21028.13
2022-07-29T17:11:57.735Z,20830.43
2022-07-29T17:14:29.375Z,21120.43
2022-07-29T17:17:00.294Z,20919.50
2022-07-29T17:19:31.362Z,21168.34
2022-07-29T17:22:06.760Z,20954.84
2022-07-29T17:24:38.277Z,21006.47
2022-07-29T17:27:05.947Z,21186.09
2022-07-29T17:29:32.770Z,20976.85
2022-07-29T17:31:59.469Z,20898.76
2022-07-29T17:34:26.542Z,20859.76
2022-07-29T17:36:53.359Z,21101.38
2022-07-29T17:39:20.120Z,20947.22
2022-07-29T17:41:46.810Z,20977.97
2022-07-29T17:44:13.981Z,21117.46
2022-07-29T17:46:40.796Z,21196.95
2022-07-29T17:49:07.560Z,20950.92
2022-07-29T17:51:34.452Z,20928.80
2022-07-29T17:54:01.179Z,20956.66
2022-07-29T17:56:27.854Z,20850.31
2022-07-29T17:58:54.572Z,21125.92
2022-07-29T18:01:21.310Z,20998.05
2022-07-29T18:03:48.056Z,20802.42
2022-07-29T18:06:14.732Z,20700.69
2022-07-29T18:08:41.499Z,20560.90
2022-07-29T18:11:08.165Z,20832.47
2022-07-29T18:13:41.721Z,20908.67
2022-07-29T18:16:09.435Z,20925.57
2022-07-29T18:18:36.382Z,20880.68
2022-07-29T18:21:04.396Z,21219.79
2022-07-29T18:23:31.345Z,20888.82
2022-07-29T18:25:58.055Z,21067.93
2022-07-29T18:28:25.736Z,21256.89
2022-07-29T18:30:52.913Z,21033.37
2022-07-29T18:33:21.614Z,20677.36
2022-07-29T18:35:50.901Z,21342.83
2022-07-29T18:38:17.827Z,20993.00
2022-07-29T18:40:44.603Z,21121.20
2022-07-29T18:43:11.761Z,20922.19
2022-07-29T18:45:38.465Z,21028.20
2022-07-29T18:48:06.784Z,20899.83
2022-07-29T18:50:33.553Z,20915.85
2022-07-29T18:53:00.299Z,21015.00
2022-07-29T18:55:27.008Z,21167.61
2022-07-29T18:57:56.689Z,21049.52
2022-07-29T19:00:24.757Z,20839.92
2022-07-29T19:02:51.980Z,20871.48
2022-07-29T19:05:19.022Z,21044.95
2022-07-29T19:07:45.718Z,20934.44
2022-07-29T19:10:12.536Z,21044.27
2022-07-29T19:12:39.200Z,21097.55
2022-07-29T19:15:06.250Z,21004.27
2022-07-29T19:17:32.969Z,21155.90
2022-07-29T19:19:59.996Z,21152.85
2022-07-29T19:22:26.686Z,21176.33
2022-07-29T19:24:53.358Z,21133.56
2022-07-29T19:27:21.411Z,21134.80
2022-07-29T19:29:48.146Z,21163.38
2022-07-29T19:32:24.799Z,21033.81
2022-07-29T19:34:52.401Z,21214.20
2022-07-29T19:37:19.151Z,21199.10
2022-07-29T19:39:45.822Z,21227.59
2022-07-29T19:42:12.641Z,21180.22
2022-07-29T19:44:39.381Z,21498.15
2022-07-29T19:47:06.092Z,21536.83
2022-07-29T19:49:32.849Z,21569.86
2022-07-29T19:51:59.887Z,21619.95
2022-07-29T19:54:26.651Z,21435.66
2022-07-29T19:56:53.359Z,21500.52
2022-07-29T19:59:23.860Z,21442.25
2022-07-29T20:01:51.386Z,21504.75
2022-07-29T20:04:18.075Z,21648.47
2022-07-29T20:06:44.783Z,21565.36
2022-07-29T20:09:20.353Z,21701.98
2022-07-29T20:11:47.230Z,21589.63
2022-07-29T20:14:14.002Z,21502.49
2022-07-29T20:16:40.726Z,21514.66
2022-07-29T20:19:07.473Z,21605.00
2022-07-29T20:21:34.177Z,21585.37
2022-07-29T20:24:02.919Z,21720.96
2022-07-29T20:26:34.035Z,21708.22
2022-07-29T20:29:00.808Z,21495.38
2022-07-29T20:31:27.904Z,21487.20
2022-07-29T20:33:54.694Z,21484.71
2022-07-29T20:36:21.453Z,21510.23
2022-07-29T20:38:48.148Z,21473.64
2022-07-29T20:41:15.431Z,21492.15
2022-07-29T20:43:43.126Z,21493.44
2022-07-29T20:46:10.004Z,21580.83
2022-07-29T20:48:36.993Z,21493.54
2022-07-29T20:51:03.695Z,21639.25
2022-07-29T20:53:30.502Z,21549.61
2022-07-29T20:55:57.295Z,21699.05
2022-07-29T20:58:24.056Z,21590.19
2022-07-29T21:00:51.295Z,21652.46
2022-07-29T21:03:18.061Z,21676.02
2022-07-29T21:05:44.908Z,21606.22
2022-07-29T21:08:11.701Z,21461.71
2022-07-29T21:10:38.361Z,21511.08
2022-07-29T21:13:05.112Z,21538.05
2022-07-29T21:15:32.342Z,21459.97
2022-07-29T21:17:59.279Z,21528.21
2022-07-29T21:20:26.638Z,21858.28
2022-07-29T21:22:53.404Z,21749.56
2022-07-29T21:25:20.106Z,21673.63
2022-07-29T21:27:47.999Z,21705.95
2022-07-29T21:30:14.755Z,21667.11
2022-07-29T21:32:41.622Z,21651.60
2022-07-29T21:35:14.501Z,21676.58
2022-07-29T21:37:54.234Z,21600.23
2022-07-29T21:40:21.435Z,21612.50
2022-07-29T21:42:48.162Z,21551.14
2022-07-29T21:45:16.561Z,21463.02
2022-07-29T21:47:43.290Z,21568.08
2022-07-29T21:50:10.098Z,21627.33
2022-07-29T21:52:37.315Z,21670.30
2022-07-29T21:55:04.516Z,21682.65
2022-07-29T21:57:31.367Z,21629.76
2022-07-29T22:00:02.511Z,21685.71
2022-07-29T22:02:29.993Z,21663.98
2022-07-29T22:04:56.695Z,21621.39
2022-07-29T22:07:24.449Z,21647.94
2022-07-29T22:10:11.178Z,21521.43
2022-07-29T22:12:37.899Z,21633.83
2022-07-29T22:15:05.410Z,21751.67
2022-07-29T22:17:32.203Z,21699.60
2022-07-29T22:19:58.922Z,21569.31
2022-07-29T22:22:25.741Z,21585.74
2022-07-29T22:24:52.729Z,21683.97
2022-07-29T22:27:19.521Z,21614.37
2022-07-29T22:29:46.224Z,21669.11
2022-07-29T22:32:13.080Z,21649.96
2022-07-29T22:34:39.820Z,21640.38
2022-07-29T22:37:07.052Z,21520.00
2022-07-29T22:39:33.759Z,21588.47
2022-07-29T22:42:00.542Z,21635.70
2022-07-29T22:44:27.319Z,21668.42
2022-07-29T22:46:54.023Z,21735.81
2022-07-29T22:49:20.868Z,21491.30
2022-07-29T22:51:47.661Z,21527.08
2022-07-29T22:54:14.556Z,21552.52
2022-07-29T22:56:41.499Z,21504.70
2022-07-29T22:59:08.227Z,21513.22
2022-07-29T23:01:37.550Z,21511.36
2022-07-29T23:04:04.619Z,21541.85
2022-07-29T23:06:31.465Z,21639.40
2022-07-29T23:08:58.202Z,21748.31
2022-07-29T23:11:25.114Z,21773.40
2022-07-29T23:13:53.992Z,21691.97
2022-07-29T23:16:26.477Z,21576.77
2022-07-29T23:18:54.497Z,21656.22
2022-07-29T23:21:21.605Z,21621.94
2022-07-29T23:23:49.272Z,21657.27
2022-07-29T23:26:16.471Z,21711.81
2022-07-29T23:28:46.320Z,21688.97
2022-07-29T23:31:13.118Z,21642.20
2022-07-29T23:33:41.084Z,21692.58
2022-07-29T23:36:08.010Z,21556.33
2022-07-29T23:38:34.766Z,21547.48
2022-07-29T23:41:02.743Z,21625.48
2022-07-29T23:43:29.456Z,21727.69
2022-07-29T23:45:56.366Z,21601.88
2022-07-29T23:48:25.010Z,21613.64
2022-07-29T23:50:51.898Z,21624.62
2022-07-29T23:53:18.812Z,21488.76
2022-07-29T23:55:45.509Z,21539.16
2022-07-29T23:58:12.293Z,21613.02
